createdAt,value
2023-05-11T00:02:08.044Z,2.25
2023-05-11T00:04:35.466Z,2.63
2023-05-11T00:07:02.541Z,2.35
2023-05-11T00:09:29.549Z,2.33
2023-05-11T00:11:56.444Z,2.35
2023-05-11T00:14:24.366Z,2.38
2023-05-11T00:16:51.270Z,2.35
2023-05-11T00:19:18.234Z,2.80
2023-05-11T00:21:46.139Z,2.58
2023-05-11T00:24:12.899Z,2.58
2023-05-11T00:26:39.988Z,3.20
2023-05-11T00:29:07.040Z,3.10
2023-05-11T00:31:34.069Z,3.78
2023-05-11T00:34:00.989Z,3.53
2023-05-11T00:36:28.808Z,4.00
2023-05-11T00:38:56.583Z,3.85
2023-05-11T00:41:24.086Z,4.05
2023-05-11T00:43:51.344Z,4.30
2023-05-11T00:46:19.089Z,4.25
2023-05-11T00:48:46.344Z,5.00
2023-05-11T00:51:13.862Z,4.82
2023-05-11T00:53:41.876Z,5.35
2023-05-11T00:56:08.928Z,6.05
2023-05-11T00:58:36.554Z,5.97
2023-05-11T01:01:03.754Z,4.45
2023-05-11T01:03:31.898Z,4.13
2023-05-11T01:06:32.394Z,5.70
2023-05-11T01:09:18.758Z,6.30
2023-05-11T01:11:55.198Z,6.93
2023-05-11T01:14:28.036Z,8.02
2023-05-11T01:16:59.162Z,7.75
2023-05-11T01:19:32.140Z,8.65
2023-05-11T01:21:59.474Z,9.90
2023-05-11T01:25:05.760Z,11.40
2023-05-11T01:27:48.601Z,10.55
2023-05-11T01:30:36.625Z,11.35
2023-05-11T01:33:07.968Z,10.85
2023-05-11T01:35:38.013Z,10.63
2023-05-11T01:38:07.150Z,11.50
2023-05-11T01:40:36.436Z,11.00
2023-05-11T01:43:13.455Z,12.10
2023-05-11T01:45:44.567Z,12.27
2023-05-11T01:48:17.953Z,11.23
2023-05-11T01:50:46.534Z,11.00
2023-05-11T01:53:14.605Z,11.23
2023-05-11T01:55:42.130Z,11.40
2023-05-11T01:58:10.891Z,11.55
2023-05-11T02:00:39.229Z,10.48
2023-05-11T02:03:06.777Z,11.88
2023-05-11T02:05:37.404Z,13.27
2023-05-11T02:08:06.737Z,13.68
2023-05-11T02:10:34.495Z,14.38
2023-05-11T02:13:03.916Z,12.80
2023-05-11T02:15:31.775Z,12.85
2023-05-11T02:17:59.466Z,12.18
2023-05-11T02:20:27.021Z,11.13
2023-05-11T02:22:55.041Z,11.27
2023-05-11T02:25:22.792Z,11.50
2023-05-11T02:27:49.775Z,9.77
2023-05-11T02:30:18.050Z,10.95
2023-05-11T02:32:53.216Z,10.47
2023-05-11T02:35:26.091Z,9.73
2023-05-11T02:37:56.698Z,9.85
2023-05-11T02:40:31.495Z,9.40
2023-05-11T02:43:04.120Z,9.73
2023-05-11T02:45:32.532Z,8.80
2023-05-11T02:48:00.778Z,8.98
2023-05-11T02:50:30.705Z,8.60
2023-05-11T02:53:02.812Z,8.55
2023-05-11T02:55:30.371Z,8.40
2023-05-11T02:57:57.862Z,8.60
2023-05-11T03:00:25.909Z,8.43
2023-05-11T03:02:53.144Z,9.57
2023-05-11T03:05:22.089Z,9.10
2023-05-11T03:07:49.160Z,9.52
2023-05-11T03:10:16.644Z,9.52
2023-05-11T03:12:45.761Z,9.00
2023-05-11T03:15:15.742Z,8.13
2023-05-11T03:17:45.257Z,8.20
2023-05-11T03:20:16.185Z,8.43
2023-05-11T03:22:44.416Z,9.15
2023-05-11T03:25:13.147Z,7.63
2023-05-11T03:27:42.096Z,8.00
2023-05-11T03:30:11.567Z,8.88
2023-05-11T03:32:43.404Z,8.57
2023-05-11T03:35:10.841Z,9.80
2023-05-11T03:37:38.937Z,8.65
2023-05-11T03:40:08.564Z,9.93
2023-05-11T03:42:46.106Z,10.38
2023-05-11T03:45:15.237Z,10.23
2023-05-11T03:47:43.512Z,10.82
2023-05-11T03:50:12.168Z,9.63
2023-05-11T03:52:39.208Z,9.48
2023-05-11T03:55:07.181Z,9.45
2023-05-11T03:57:35.140Z,10.25
2023-05-11T04:00:02.911Z,10.40
2023-05-11T04:02:31.775Z,10.07
2023-05-11T04:05:10.471Z,10.82
2023-05-11T04:07:38.280Z,10.45
2023-05-11T04:10:06.321Z,10.32
2023-05-11T04:12:33.824Z,11.18
2023-05-11T04:15:01.267Z,11.13
2023-05-11T04:17:28.465Z,10.85
2023-05-11T04:19:56.276Z,12.30
2023-05-11T04:22:23.625Z,11.13
2023-05-11T04:24:51.025Z,13.93
2023-05-11T04:27:18.135Z,13.35
2023-05-11T04:29:45.100Z,12.82
2023-05-11T04:32:12.057Z,8.70
2023-05-11T04:34:39.969Z,13.25
2023-05-11T04:37:08.602Z,11.63
2023-05-11T04:39:37.573Z,11.25
2023-05-11T04:42:05.352Z,12.32
2023-05-11T04:44:32.256Z,13.25
2023-05-11T04:47:02.490Z,13.20
2023-05-11T04:51:56.403Z,12.65
2023-05-11T04:54:23.557Z,13.02
2023-05-11T04:56:50.622Z,13.07
2023-05-11T04:59:17.665Z,13.30
2023-05-11T05:01:44.876Z,13.55
2023-05-11T05:04:12.325Z,13.45
2023-05-11T05:06:39.529Z,13.77
2023-05-11T05:09:07.016Z,14.40
2023-05-11T05:11:34.627Z,14.27
2023-05-11T05:14:01.706Z,13.50
2023-05-11T05:16:31.565Z,12.65
2023-05-11T05:18:59.554Z,11.82
2023-05-11T05:21:27.649Z,11.38
2023-05-11T05:23:56.021Z,11.68
2023-05-11T05:26:23.342Z,10.48
2023-05-11T05:28:51.005Z,11.05
2023-05-11T05:31:20.105Z,10.80
2023-05-11T05:33:47.261Z,10.20
2023-05-11T05:36:14.452Z,11.02
2023-05-11T05:38:41.687Z,10.75
2023-05-11T05:41:09.358Z,10.73
2023-05-11T05:43:39.731Z,9.55
2023-05-11T05:46:07.229Z,10.23
2023-05-11T05:48:34.449Z,9.07
2023-05-11T05:51:01.520Z,8.43
2023-05-11T05:53:28.579Z,8.70
2023-05-11T05:55:55.789Z,9.13
2023-05-11T05:58:22.785Z,8.40
2023-05-11T06:00:49.954Z,7.82
2023-05-11T06:03:17.233Z,7.90
2023-05-11T06:05:44.638Z,7.93
2023-05-11T06:08:12.103Z,7.55
2023-05-11T06:10:39.903Z,7.47
2023-05-11T06:13:09.535Z,7.95
2023-05-11T06:15:39.477Z,7.45
2023-05-11T06:18:14.831Z,8.00
2023-05-11T06:20:43.480Z,6.78
2023-05-11T06:23:12.068Z,6.88
2023-05-11T06:25:43.078Z,5.95
2023-05-11T06:28:10.212Z,6.05
2023-05-11T06:30:37.900Z,6.13
2023-05-11T06:33:07.533Z,5.88
2023-05-11T06:35:37.607Z,5.40
2023-05-11T06:38:07.184Z,4.75
2023-05-11T06:40:36.364Z,5.55
2023-05-11T06:43:03.647Z,5.88
2023-05-11T06:45:46.299Z,5.32
2023-05-11T06:48:14.085Z,4.88
2023-05-11T06:50:41.709Z,4.68
2023-05-11T06:53:13.184Z,5.30
2023-05-11T06:55:40.346Z,4.68
2023-05-11T06:58:07.459Z,4.20
2023-05-11T07:00:34.425Z,21.25
2023-05-11T07:03:01.569Z,5.32
2023-05-11T07:05:28.524Z,4.53
2023-05-11T07:07:55.614Z,4.13
2023-05-11T07:10:22.746Z,4.03
2023-05-11T07:12:50.796Z,5.13
2023-05-11T07:15:18.039Z,4.00
2023-05-11T07:17:48.063Z,3.65
2023-05-11T07:20:15.509Z,4.47
2023-05-11T07:22:42.705Z,3.83
2023-05-11T07:25:12.456Z,4.05
2023-05-11T07:27:39.711Z,3.78
2023-05-11T07:30:07.544Z,3.53
2023-05-11T07:32:34.766Z,3.90
2023-05-11T07:35:01.960Z,3.97
2023-05-11T07:37:29.211Z,3.85
2023-05-11T07:39:59.613Z,3.55
2023-05-11T07:42:27.514Z,3.90
2023-05-11T07:44:54.644Z,3.35
2023-05-11T07:47:21.828Z,3.50
2023-05-11T07:49:48.858Z,3.20
2023-05-11T07:52:15.673Z,3.35
2023-05-11T07:54:42.868Z,3.53
2023-05-11T07:57:11.507Z,3.35
2023-05-11T07:59:38.544Z,3.40
2023-05-11T08:02:06.778Z,5.40
2023-05-11T08:04:33.843Z,3.28
2023-05-11T08:07:00.910Z,3.25
2023-05-11T08:09:28.098Z,3.58
2023-05-11T08:11:56.746Z,3.40
2023-05-11T08:14:25.656Z,3.40
2023-05-11T08:16:52.883Z,3.50
2023-05-11T08:19:19.971Z,3.20
2023-05-11T08:21:46.954Z,3.10
2023-05-11T08:24:13.918Z,3.25
2023-05-11T08:26:41.078Z,3.55
2023-05-11T08:29:08.223Z,3.00
2023-05-11T08:31:35.871Z,3.30
2023-05-11T08:34:03.145Z,2.50
2023-05-11T08:36:30.392Z,2.95
2023-05-11T08:38:59.267Z,3.03
2023-05-11T08:41:26.465Z,3.38
2023-05-11T08:43:55.446Z,3.50
2023-05-11T08:46:24.318Z,3.35
2023-05-11T08:48:51.373Z,3.85
2023-05-11T08:51:18.658Z,4.20
2023-05-11T08:53:45.740Z,3.90
2023-05-11T08:56:13.601Z,3.70
2023-05-11T08:58:41.294Z,4.00
2023-05-11T09:01:09.094Z,3.58
2023-05-11T09:03:39.359Z,3.85
2023-05-11T09:06:07.874Z,3.38
2023-05-11T09:08:38.829Z,3.00
2023-05-11T09:11:06.393Z,2.85
2023-05-11T09:13:34.099Z,3.40
2023-05-11T09:16:01.424Z,3.00
2023-05-11T09:18:28.884Z,3.00
2023-05-11T09:23:27.185Z,3.45
2023-05-11T09:25:55.163Z,3.30
2023-05-11T09:28:25.725Z,3.03
2023-05-11T09:30:54.291Z,3.15
2023-05-11T09:33:26.197Z,3.03
2023-05-11T09:35:53.743Z,3.03
2023-05-11T09:38:23.233Z,3.00
2023-05-11T09:40:55.736Z,2.72
2023-05-11T09:43:27.623Z,2.97
2023-05-11T09:45:57.177Z,2.60
2023-05-11T09:48:33.897Z,2.50
2023-05-11T09:51:08.124Z,2.70
2023-05-11T09:53:38.982Z,2.40
2023-05-11T09:56:06.215Z,2.63
2023-05-11T09:58:47.573Z,4.00
2023-05-11T10:01:15.501Z,2.30
2023-05-11T10:03:50.674Z,2.42
2023-05-11T10:06:20.217Z,2.25
2023-05-11T10:08:47.765Z,1.90
2023-05-11T10:11:15.440Z,2.28
2023-05-11T10:13:44.829Z,1.90
2023-05-11T10:16:14.481Z,2.00
2023-05-11T10:18:44.120Z,2.30
2023-05-11T10:21:11.928Z,1.95
2023-05-11T10:23:40.455Z,12.20
2023-05-11T10:26:07.960Z,2.30
2023-05-11T10:28:35.591Z,1.75
2023-05-11T10:31:04.703Z,2.10
2023-05-11T10:33:31.707Z,2.10
2023-05-11T10:35:59.107Z,2.22
2023-05-11T10:38:26.242Z,1.73
2023-05-11T10:40:58.337Z,2.30
2023-05-11T10:43:30.626Z,1.60
2023-05-11T10:46:39.790Z,1.85
2023-05-11T10:49:14.123Z,1.60
2023-05-11T10:52:12.357Z,1.42
2023-05-11T10:54:42.344Z,1.63
2023-05-11T10:57:25.672Z,1.80
2023-05-11T11:00:10.436Z,1.80
2023-05-11T11:02:38.577Z,2.17
2023-05-11T11:05:11.177Z,2.75
2023-05-11T11:08:01.348Z,2.70
2023-05-11T11:10:46.258Z,3.50
2023-05-11T11:13:14.706Z,2.50
2023-05-11T11:15:54.012Z,2.20
2023-05-11T11:18:22.837Z,1.88
2023-05-11T11:20:52.555Z,2.22
2023-05-11T11:23:45.326Z,2.13
2023-05-11T11:26:19.026Z,2.13
2023-05-11T11:28:57.702Z,2.35
2023-05-11T11:31:26.471Z,2.60
2023-05-11T11:33:58.807Z,2.22
2023-05-11T11:36:55.783Z,2.30
2023-05-11T11:39:25.533Z,2.75
2023-05-11T11:42:01.835Z,2.50
2023-05-11T11:44:29.047Z,2.53
2023-05-11T11:47:23.011Z,2.20
2023-05-11T11:49:52.238Z,1.60
2023-05-11T11:52:31.248Z,1.40
2023-05-11T11:55:01.978Z,1.10
2023-05-11T11:57:32.631Z,1.27
2023-05-11T12:00:00.862Z,1.42
2023-05-11T12:02:28.957Z,1.20
2023-05-11T12:05:13.115Z,1.05
2023-05-11T12:07:43.262Z,1.00
2023-05-11T12:10:13.210Z,1.30
2023-05-11T12:12:41.164Z,1.40
2023-05-11T12:15:08.991Z,0.90
2023-05-11T12:17:39.037Z,3.33
2023-05-11T12:20:17.166Z,0.60
2023-05-11T12:22:49.118Z,0.70
2023-05-11T12:25:18.106Z,0.93
2023-05-11T12:27:50.301Z,0.60
2023-05-11T12:30:25.226Z,0.50
2023-05-11T12:35:25.856Z,0.70
2023-05-11T12:37:53.710Z,0.40
2023-05-11T12:40:20.932Z,0.50
2023-05-11T12:42:56.305Z,0.60
2023-05-11T12:45:24.791Z,0.88
2023-05-11T12:47:53.932Z,0.60
2023-05-11T12:50:21.835Z,0.40
2023-05-11T12:52:51.574Z,0.50
2023-05-11T12:55:28.782Z,0.93
2023-05-11T12:58:17.213Z,0.93
2023-05-11T13:00:55.157Z,0.90
2023-05-11T13:03:30.804Z,0.90
2023-05-11T13:06:11.985Z,1.00
2023-05-11T13:08:43.579Z,1.02
2023-05-11T13:11:36.932Z,1.00
2023-05-11T13:14:17.024Z,1.17
2023-05-11T13:19:28.805Z,1.00
2023-05-11T13:21:56.493Z,1.02
2023-05-11T13:24:24.427Z,1.13
2023-05-11T13:26:53.648Z,1.00
2023-05-11T13:29:21.124Z,1.20
2023-05-11T13:31:52.522Z,1.20
2023-05-11T13:34:20.611Z,1.10
2023-05-11T13:36:48.338Z,1.10
2023-05-11T13:39:15.570Z,1.48
2023-05-11T13:41:42.520Z,1.05
2023-05-11T13:44:09.693Z,0.90
2023-05-11T13:46:36.683Z,0.80
2023-05-11T13:49:04.847Z,0.60
2023-05-11T13:51:32.500Z,0.68
2023-05-11T13:54:01.077Z,0.60
2023-05-11T13:56:28.289Z,0.40
2023-05-11T13:58:56.729Z,0.60
2023-05-11T14:03:53.743Z,1.45
2023-05-11T14:06:21.967Z,0.50
2023-05-11T14:08:49.760Z,0.70
2023-05-11T14:11:17.251Z,0.60
2023-05-11T14:13:44.528Z,0.63
2023-05-11T14:16:11.760Z,0.63
2023-05-11T14:18:38.963Z,0.43
2023-05-11T14:21:06.035Z,0.60
2023-05-11T14:23:32.884Z,0.70
2023-05-11T14:25:59.769Z,0.50
2023-05-11T14:28:27.024Z,0.70
2023-05-11T14:30:54.975Z,0.70
2023-05-11T14:33:21.956Z,0.60
2023-05-11T14:35:50.006Z,0.60
2023-05-11T14:38:17.517Z,0.90
2023-05-11T14:40:44.513Z,0.70
2023-05-11T14:43:11.578Z,0.85
2023-05-11T14:45:39.488Z,0.80
2023-05-11T14:48:07.196Z,0.90
2023-05-11T14:50:34.886Z,1.00
2023-05-11T14:53:01.900Z,0.98
2023-05-11T14:55:29.070Z,0.80
2023-05-11T14:57:56.668Z,0.90
2023-05-11T15:00:23.609Z,1.00
2023-05-11T15:02:50.895Z,1.08
2023-05-11T15:05:18.488Z,1.48
2023-05-11T15:07:45.914Z,0.88
2023-05-11T15:10:12.927Z,1.10
2023-05-11T15:12:40.255Z,1.27
2023-05-11T15:15:08.818Z,1.00
2023-05-11T15:17:36.450Z,1.20
2023-05-11T15:20:03.993Z,1.00
2023-05-11T15:22:32.261Z,1.20
2023-05-11T15:24:59.523Z,1.00
2023-05-11T15:27:26.800Z,0.70
2023-05-11T15:29:53.921Z,0.95
2023-05-11T15:32:21.093Z,1.20
2023-05-11T15:34:59.262Z,0.70
2023-05-11T15:37:28.187Z,1.02
2023-05-11T15:39:55.239Z,0.70
2023-05-11T15:42:22.382Z,0.60
2023-05-11T15:44:49.594Z,0.60
2023-05-11T15:47:17.090Z,0.50
2023-05-11T15:49:44.557Z,0.70
2023-05-11T15:52:11.704Z,0.70
2023-05-11T15:54:38.681Z,0.70
2023-05-11T15:57:06.202Z,0.50
2023-05-11T15:59:33.421Z,0.70
2023-05-11T16:02:00.330Z,0.77
2023-05-11T16:04:27.501Z,1.23
2023-05-11T16:06:56.758Z,0.88
2023-05-11T16:09:25.097Z,0.73
2023-05-11T16:11:52.170Z,1.00
2023-05-11T16:14:19.232Z,0.82
2023-05-11T16:16:46.802Z,0.90
2023-05-11T16:19:14.158Z,0.82
2023-05-11T16:21:41.559Z,0.90
2023-05-11T16:24:08.734Z,0.90
2023-05-11T16:26:36.097Z,0.70
2023-05-11T16:29:03.128Z,1.02
2023-05-11T16:31:30.342Z,0.90
2023-05-11T16:33:57.660Z,0.90
2023-05-11T16:36:24.920Z,1.08
2023-05-11T16:38:52.139Z,1.20
2023-05-11T16:41:19.247Z,1.20
2023-05-11T16:43:46.545Z,1.00
2023-05-11T16:46:14.022Z,0.80
2023-05-11T16:48:42.584Z,1.02
2023-05-11T16:51:10.484Z,0.90
2023-05-11T16:53:38.396Z,1.15
2023-05-11T16:56:06.076Z,1.00
2023-05-11T16:58:33.590Z,0.90
2023-05-11T17:01:00.915Z,1.00
2023-05-11T17:03:28.489Z,1.13
2023-05-11T17:05:56.240Z,1.00
2023-05-11T17:08:22.824Z,0.90
2023-05-11T17:10:49.763Z,1.10
2023-05-11T17:13:17.672Z,1.00
2023-05-11T17:15:44.690Z,0.90
2023-05-11T17:18:11.781Z,1.20
2023-05-11T17:20:39.457Z,1.10
2023-05-11T17:23:06.240Z,1.10
2023-05-11T17:25:33.336Z,1.00
2023-05-11T17:28:02.278Z,0.98
2023-05-11T17:30:39.992Z,1.20
2023-05-11T17:33:15.221Z,1.50
2023-05-11T17:35:42.862Z,1.60
2023-05-11T17:38:10.438Z,1.63
2023-05-11T17:40:38.380Z,1.70
2023-05-11T17:43:05.390Z,1.80
2023-05-11T17:45:32.577Z,1.85
2023-05-11T17:47:59.709Z,1.65
2023-05-11T17:50:28.394Z,1.70
2023-05-11T17:52:55.814Z,1.67
2023-05-11T17:55:22.972Z,1.58
2023-05-11T17:57:51.864Z,1.80
2023-05-11T18:00:19.404Z,1.88
2023-05-11T18:02:50.155Z,1.85
2023-05-11T18:05:18.623Z,1.80
2023-05-11T18:07:46.181Z,2.00
2023-05-11T18:10:14.162Z,2.03
2023-05-11T18:12:41.638Z,2.10
2023-05-11T18:15:09.625Z,1.90
2023-05-11T18:17:36.899Z,1.80
2023-05-11T18:20:05.549Z,1.98
2023-05-11T18:22:34.058Z,1.75
2023-05-11T18:25:01.202Z,1.60
2023-05-11T18:27:28.600Z,1.48
2023-05-11T18:29:55.841Z,1.60
2023-05-11T18:32:22.994Z,1.45
2023-05-11T18:34:49.852Z,1.83
2023-05-11T18:37:16.980Z,1.75
2023-05-11T18:39:44.605Z,2.30
2023-05-11T18:42:11.920Z,2.20
2023-05-11T18:44:38.978Z,1.90
2023-05-11T18:47:06.483Z,2.28
2023-05-11T18:49:33.746Z,1.83
2023-05-11T18:52:00.712Z,2.00
2023-05-11T18:54:27.849Z,2.00
2023-05-11T18:56:54.643Z,2.40
2023-05-11T18:59:22.061Z,2.40
2023-05-11T19:01:49.705Z,1.88
2023-05-11T19:04:19.975Z,2.15
2023-05-11T19:06:47.337Z,2.08
2023-05-11T19:09:14.219Z,1.90
2023-05-11T19:11:41.725Z,2.30
2023-05-11T19:14:10.421Z,2.08
2023-05-11T19:16:37.706Z,2.50
2023-05-11T19:19:05.000Z,2.00
2023-05-11T19:21:33.291Z,1.98
2023-05-11T19:24:00.665Z,2.40
2023-05-11T19:26:28.733Z,2.63
2023-05-11T19:28:55.634Z,2.72
2023-05-11T19:31:25.288Z,2.75
2023-05-11T19:33:52.432Z,2.83
2023-05-11T19:36:19.547Z,2.70
2023-05-11T19:38:46.666Z,3.28
2023-05-11T19:41:13.687Z,3.42
2023-05-11T19:43:40.806Z,3.67
2023-05-11T19:46:08.075Z,3.17
2023-05-11T19:48:35.453Z,3.35
2023-05-11T19:51:02.629Z,3.30
2023-05-11T19:53:30.719Z,3.90
2023-05-11T19:55:57.757Z,3.90
2023-05-11T19:58:24.718Z,4.30
2023-05-11T20:00:51.815Z,4.18
2023-05-11T20:03:19.125Z,4.18
2023-05-11T20:05:46.449Z,4.60
2023-05-11T20:08:13.800Z,4.60
2023-05-11T20:10:40.756Z,4.63
2023-05-11T20:13:08.174Z,4.65
2023-05-11T20:15:35.627Z,5.35
2023-05-11T20:18:03.153Z,5.10
2023-05-11T20:20:33.560Z,5.38
2023-05-11T20:23:02.379Z,5.20
2023-05-11T20:25:29.814Z,6.00
2023-05-11T20:27:56.986Z,5.43
2023-05-11T20:30:24.287Z,5.68
2023-05-11T20:35:22.394Z,6.28
2023-05-11T20:37:49.523Z,4.78
2023-05-11T20:40:17.122Z,5.60
2023-05-11T20:42:44.500Z,5.50
2023-05-11T20:45:12.043Z,5.22
2023-05-11T20:47:39.152Z,5.43
2023-05-11T20:50:08.416Z,6.15
2023-05-11T20:52:35.866Z,6.07
2023-05-11T20:55:03.404Z,5.57
2023-05-11T20:57:30.719Z,5.95
2023-05-11T21:05:02.534Z,5.70
2023-05-11T21:07:31.380Z,6.03
2023-05-11T21:09:58.544Z,5.72
2023-05-11T21:12:26.000Z,5.10
2023-05-11T21:14:54.417Z,4.53
2023-05-11T21:17:23.169Z,4.63
2023-05-11T21:19:50.719Z,4.93
2023-05-11T21:22:17.679Z,4.60
2023-05-11T21:24:44.526Z,4.30
2023-05-11T21:27:11.648Z,4.72
2023-05-11T21:29:38.897Z,4.38
2023-05-11T21:32:06.750Z,4.50
2023-05-11T21:34:33.724Z,4.93
2023-05-11T21:37:03.096Z,5.00
2023-05-11T21:39:30.481Z,5.20
2023-05-11T21:41:57.685Z,5.63
2023-05-11T21:44:24.670Z,6.13
2023-05-11T21:46:52.005Z,5.68
2023-05-11T21:49:19.449Z,5.25
2023-05-11T21:51:47.011Z,5.25
2023-05-11T21:54:13.999Z,5.38
2023-05-11T21:56:42.211Z,5.53
2023-05-11T21:59:09.364Z,5.63
2023-05-11T22:01:36.490Z,5.35
2023-05-11T22:04:03.844Z,5.60
2023-05-11T22:06:30.937Z,5.57
2023-05-11T22:08:58.043Z,5.70
2023-05-11T22:11:24.988Z,5.97
2023-05-11T22:13:51.906Z,6.13
2023-05-11T22:16:19.150Z,5.43
2023-05-11T22:18:47.506Z,6.85
2023-05-11T22:21:14.336Z,6.55
2023-05-11T22:23:41.763Z,6.40
2023-05-11T22:26:08.538Z,5.45
2023-05-11T22:28:36.075Z,6.20
2023-05-11T22:31:03.249Z,5.95
2023-05-11T22:33:30.588Z,6.57
2023-05-11T22:35:57.396Z,6.80
2023-05-11T22:38:24.220Z,6.72
2023-05-11T22:40:51.285Z,6.97
2023-05-11T22:43:18.349Z,7.75
2023-05-11T22:45:45.188Z,6.38
2023-05-11T22:48:12.237Z,6.50
2023-05-11T22:50:46.615Z,6.35
2023-05-11T22:53:14.289Z,6.40
2023-05-11T22:55:42.100Z,5.97
2023-05-11T22:58:09.671Z,6.20
2023-05-11T23:00:36.913Z,5.88
2023-05-11T23:03:04.182Z,6.43
2023-05-11T23:05:31.174Z,6.60
2023-05-11T23:07:59.912Z,6.28
2023-05-11T23:10:27.545Z,6.35
2023-05-11T23:12:55.407Z,6.65
2023-05-11T23:15:22.485Z,6.60
2023-05-11T23:17:49.776Z,7.07
2023-05-11T23:20:17.271Z,7.68
2023-05-11T23:22:44.458Z,7.35
2023-05-11T23:25:11.509Z,7.57
2023-05-11T23:27:38.902Z,7.90
2023-05-11T23:30:06.688Z,7.80
2023-05-11T23:32:33.984Z,7.28
2023-05-11T23:35:00.958Z,6.95
2023-05-11T23:37:27.873Z,6.88
2023-05-11T23:39:55.144Z,6.85
2023-05-11T23:42:22.070Z,6.97
2023-05-11T23:44:49.424Z,7.30
2023-05-11T23:47:16.741Z,6.88
2023-05-11T23:49:43.894Z,7.35
2023-05-11T23:52:10.924Z,7.88
2023-05-11T23:54:38.125Z,7.90
2023-05-11T23:57:05.498Z,7.68
2023-05-11T23:59:32.695Z,8.27
